createdAt,value
2022-11-06T14:28:45.768Z,7.72
2022-11-06T14:34:04.290Z,7.40
2022-11-06T14:39:12.057Z,7.25
2022-11-06T14:44:25.081Z,6.75
2022-11-06T14:49:42.263Z,7.10
2022-11-06T14:54:54.795Z,6.57
2022-11-06T14:59:59.567Z,6.45
2022-11-06T15:05:06.767Z,5.72
2022-11-06T15:10:50.686Z,5.63
2022-11-06T15:15:59.580Z,5.03
2022-11-06T15:21:05.013Z,5.00
2022-11-06T15:26:18.795Z,5.40
2022-11-06T15:31:24.098Z,4.73
2022-11-06T15:36:29.389Z,4.88
2022-11-06T15:41:32.593Z,5.10
2022-11-06T15:46:37.267Z,5.28
2022-11-06T15:51:41.421Z,4.82
2022-11-06T15:56:45.172Z,5.05
2022-11-06T16:01:50.939Z,5.03
2022-11-06T16:06:57.181Z,4.63
2022-11-06T16:12:01.648Z,4.82
2022-11-06T16:22:17.686Z,4.70
2022-11-06T16:32:51.789Z,5.03
2022-11-06T16:38:03.458Z,5.15
2022-11-06T16:43:19.846Z,5.60
2022-11-06T16:48:34.703Z,4.90
2022-11-06T16:53:59.766Z,5.25
2022-11-06T16:59:07.035Z,5.38
2022-11-06T17:04:20.929Z,4.97
2022-11-06T17:09:31.637Z,5.55
2022-11-06T17:14:34.998Z,5.07
2022-11-06T17:19:39.606Z,5.55
2022-11-06T17:24:42.801Z,5.70
2022-11-06T17:29:46.116Z,6.35
2022-11-06T17:34:50.729Z,5.90
2022-11-06T17:39:54.453Z,6.72
2022-11-06T17:44:57.707Z,6.15
2022-11-06T17:50:02.398Z,6.05
2022-11-06T18:00:11.297Z,6.60
2022-11-06T18:05:16.094Z,6.80
2022-11-06T18:15:22.232Z,7.18
2022-11-06T18:20:26.958Z,7.25
2022-11-06T18:30:33.031Z,8.05
2022-11-06T18:35:37.554Z,6.97
2022-11-06T18:40:41.129Z,7.53
2022-11-06T18:45:44.269Z,8.45
2022-11-06T18:50:48.803Z,7.05
2022-11-06T18:55:52.661Z,6.75
2022-11-06T19:01:01.503Z,8.00
2022-11-06T19:06:09.591Z,7.93
2022-11-06T19:11:15.274Z,7.80
2022-11-06T19:16:19.666Z,7.65
2022-11-06T19:21:24.286Z,7.65
2022-11-06T19:26:31.957Z,8.65
2022-11-06T19:31:37.331Z,8.02
2022-11-06T19:36:42.256Z,7.80
2022-11-06T19:41:45.551Z,8.25
2022-11-06T19:46:48.714Z,7.07
2022-11-06T19:51:53.303Z,8.43
2022-11-06T19:57:27.189Z,7.13
2022-11-06T20:02:20.198Z,7.75
2022-11-06T20:07:26.579Z,8.40
2022-11-06T20:12:29.847Z,8.45
2022-11-06T20:17:33.062Z,8.60
2022-11-06T20:22:37.637Z,8.32
2022-11-06T20:27:40.891Z,8.27
2022-11-06T20:32:44.538Z,7.72
2022-11-06T20:37:49.408Z,7.57
2022-11-06T20:42:52.841Z,7.93
2022-11-06T20:47:56.443Z,7.18
2022-11-06T20:53:01.133Z,6.72
2022-11-06T20:58:04.269Z,7.05
2022-11-06T21:03:07.448Z,6.90
2022-11-06T21:08:12.282Z,7.00
2022-11-06T21:18:19.045Z,6.47
2022-11-06T21:23:23.994Z,7.43
2022-11-06T21:28:27.152Z,7.03
2022-11-06T21:33:30.284Z,7.40
2022-11-06T21:38:34.922Z,6.90
2022-11-06T21:43:38.074Z,7.47
2022-11-06T21:48:46.803Z,6.82
2022-11-06T21:54:10.001Z,7.70
2022-11-06T21:59:15.830Z,7.55
2022-11-06T22:04:19.032Z,11.73
2022-11-06T22:09:25.640Z,9.77
2022-11-06T22:14:29.137Z,8.43
2022-11-06T22:19:32.282Z,7.82
2022-11-06T22:24:36.818Z,7.90
2022-11-06T22:29:39.980Z,8.00
2022-11-06T22:34:43.114Z,8.18
2022-11-06T22:39:49.261Z,8.80
2022-11-06T22:44:52.394Z,7.22
2022-11-06T22:49:55.700Z,6.78
2022-11-06T22:55:00.253Z,8.23
2022-11-06T23:00:04.258Z,8.15
2022-11-06T23:05:08.305Z,7.07
2022-11-06T23:10:13.050Z,7.10
2022-11-06T23:15:16.221Z,8.07
2022-11-06T23:20:19.782Z,7.97
2022-11-06T23:25:24.408Z,7.35
2022-11-06T23:30:30.152Z,7.57
2022-11-06T23:35:33.979Z,7.22
2022-11-06T23:40:38.597Z,7.80
2022-11-06T23:45:51.562Z,7.53
2022-11-06T23:50:54.758Z,7.40
2022-11-06T23:55:59.626Z,8.43
